Audacious — NA34 — position and weather

sailwx.info

Track history (hours):
 
Tides and Currents Weather Stations Pressure Air Temp Water Temp Dewpoint Dewpoint Depression Visibility Wind Speed Wind Dir Waves Ship Positions

Audacious

Last reported at 2017-Oct-24 22:35 UTC. Time now 2017-Dec-13 14:51 UTC.
Position N 38°59' W 076°29'.
Warning: this ship's position is 49 days out of date.

Length 14 m.

Type: Sailing vessel. MMSI: 369970075.

Date/timePositionNaut miles runAvg speedWind from/ knotsBaromVisibWave heightAir tempDewpointWater temp
2017-Oct-24 22:35N 38°59' W 076°29'0 1.8
2017-Oct-24 22:30N 38°59' W 076°29'1 2.4
2017-Oct-24 22:00N 38°58' W 076°28'0 0.6
2017-Oct-24 21:30N 38°58' W 076°28'0 0.4
2017-Oct-24 21:00N 38°58' W 076°28'0 0.8
2017-Oct-24 20:30N 38°58' W 076°28'1 0.0
2017-Oct-22 18:11N 38°59' W 076°29'1 3.3
2017-Oct-22 18:00N 38°59' W 076°28'3 6.9
2017-Oct-22 17:30N 38°56' W 076°26'0 0.1
2017-Oct-22 17:00N 38°56' W 076°26'0 0.8
2017-Oct-22 16:30N 38°55' W 076°26'0 0.3
2017-Oct-22 16:00N 38°55' W 076°26'1 1.4
2017-Oct-22 15:30N 38°56' W 076°26'0 0.1
2017-Oct-22 15:00N 38°56' W 076°26'0 0.4
2017-Oct-22 14:30N 38°56' W 076°26'0 0.3
2017-Oct-22 14:00N 38°56' W 076°26'3 5.1
2017-Oct-22 13:30N 38°58' W 076°27'1 2.7
2017-Oct-22 12:58N 38°59' W 076°29'0 0.0
2017-Oct-21 18:03N 38°59' W 076°29'0 0.0
2017-Oct-21 18:00N 38°59' W 076°29'2 4.8
2017-Oct-21 17:30N 38°57' W 076°27'1 2.7
2017-Oct-21 17:00N 38°56' W 076°26'1 1.5
2017-Oct-21 16:30N 38°55' W 076°26'0 0.2
2017-Oct-21 16:00N 38°55' W 076°26'0 0.4
2017-Oct-21 15:14N 38°55' W 076°26'0 1.5
2017-Oct-21 15:00N 38°55' W 076°26'1 1.6
2017-Oct-21 14:30N 38°56' W 076°26'4 0.2
2017-Oct-20 22:14N 38°59' W 076°29'0 1.8
2017-Oct-20 22:00N 38°59' W 076°28'0 0.2
2017-Oct-20 21:30N 38°59' W 076°28'0 0.1
2017-Oct-20 21:00N 38°59' W 076°28'0 0.4
2017-Oct-20 20:30N 38°59' W 076°28'1 0.0
2017-Oct-18 22:20N 38°59' W 076°29'1 2.1
2017-Oct-18 22:00N 38°59' W 076°28'3 6.8
2017-Oct-18 21:30N 38°56' W 076°26'1 1.7
2017-Oct-18 21:00N 38°56' W 076°26'2 4.4
2017-Oct-18 20:30N 38°58' W 076°28'1 2.1
2017-Oct-18 19:59N 38°59' W 076°29'0 0.0
2017-Oct-18 13:45N 38°59' W 076°29'1 0.9
2017-Oct-18 13:04N 38°59' W 076°28'0 0.5
2017-Oct-18 13:00N 38°59' W 076°28'  
Track history (hours):
 
Tides and Currents Weather Stations Pressure Air Temp Water Temp Dewpoint Dewpoint Depression Visibility Wind Speed Wind Dir Waves Ship Positions

Audacious

Last reported at 2017-Oct-24 22:35 UTC. Time now 2017-Dec-13 14:51 UTC.
Position N 38°59' W 076°29'.
Warning: this ship's position is 49 days out of date.

Length 14 m.

Type: Sailing vessel. MMSI: 369970075.

Date/timePositionNaut miles runAvg speedWind from/ knotsBaromVisibWave heightAir tempDewpointWater temp
2017-Oct-24 22:35N 38°59' W 076°29'0 1.8
2017-Oct-24 22:30N 38°59' W 076°29'1 2.4
2017-Oct-24 22:00N 38°58' W 076°28'0 0.6
2017-Oct-24 21:30N 38°58' W 076°28'0 0.4
2017-Oct-24 21:00N 38°58' W 076°28'0 0.8
2017-Oct-24 20:30N 38°58' W 076°28'1 0.0
2017-Oct-22 18:11N 38°59' W 076°29'1 3.3
2017-Oct-22 18:00N 38°59' W 076°28'3 6.9
2017-Oct-22 17:30N 38°56' W 076°26'0 0.1
2017-Oct-22 17:00N 38°56' W 076°26'0 0.8
2017-Oct-22 16:30N 38°55' W 076°26'0 0.3
2017-Oct-22 16:00N 38°55' W 076°26'1 1.4
2017-Oct-22 15:30N 38°56' W 076°26'0 0.1
2017-Oct-22 15:00N 38°56' W 076°26'0 0.4
2017-Oct-22 14:30N 38°56' W 076°26'0 0.3
2017-Oct-22 14:00N 38°56' W 076°26'3 5.1
2017-Oct-22 13:30N 38°58' W 076°27'1 2.7
2017-Oct-22 12:58N 38°59' W 076°29'0 0.0
2017-Oct-21 18:03N 38°59' W 076°29'0 0.0
2017-Oct-21 18:00N 38°59' W 076°29'2 4.8
2017-Oct-21 17:30N 38°57' W 076°27'1 2.7
2017-Oct-21 17:00N 38°56' W 076°26'1 1.5
2017-Oct-21 16:30N 38°55' W 076°26'0 0.2
2017-Oct-21 16:00N 38°55' W 076°26'0 0.4
2017-Oct-21 15:14N 38°55' W 076°26'0 1.5
2017-Oct-21 15:00N 38°55' W 076°26'1 1.6
2017-Oct-21 14:30N 38°56' W 076°26'4 0.2
2017-Oct-20 22:14N 38°59' W 076°29'0 1.8
2017-Oct-20 22:00N 38°59' W 076°28'0 0.2
2017-Oct-20 21:30N 38°59' W 076°28'0 0.1
2017-Oct-20 21:00N 38°59' W 076°28'0 0.4
2017-Oct-20 20:30N 38°59' W 076°28'1 0.0
2017-Oct-18 22:20N 38°59' W 076°29'1 2.1
2017-Oct-18 22:00N 38°59' W 076°28'3 6.8
2017-Oct-18 21:30N 38°56' W 076°26'1 1.7
2017-Oct-18 21:00N 38°56' W 076°26'2 4.4
2017-Oct-18 20:30N 38°58' W 076°28'1 2.1
2017-Oct-18 19:59N 38°59' W 076°29'0 0.0
2017-Oct-18 13:45N 38°59' W 076°29'1 0.9
2017-Oct-18 13:04N 38°59' W 076°28'0 0.5
2017-Oct-18 13:00N 38°59' W 076°28'  

Dump ship's entire track history